createdAt,value
2019-02-22T00:00:53.594Z,8.90
2019-02-22T00:03:22.193Z,8.90
2019-02-22T00:05:50.662Z,8.90
2019-02-22T00:08:19.414Z,8.91
2019-02-22T00:10:48.045Z,8.91
2019-02-22T00:13:16.514Z,8.92
2019-02-22T00:15:45.043Z,8.92
2019-02-22T00:18:13.665Z,8.90
2019-02-22T00:20:42.137Z,8.91
2019-02-22T00:23:10.647Z,8.89
2019-02-22T00:25:39.177Z,8.91
2019-02-22T00:28:07.784Z,8.92
2019-02-22T00:30:36.353Z,8.92
2019-02-22T00:33:05.015Z,8.92
2019-02-22T00:35:33.528Z,8.92
2019-02-22T00:38:02.053Z,8.92
2019-02-22T00:40:30.583Z,8.90
2019-02-22T00:42:59.206Z,8.89
2019-02-22T00:45:27.790Z,8.90
2019-02-22T00:47:56.244Z,8.90
2019-02-22T00:50:24.727Z,8.89
2019-02-22T00:52:53.275Z,8.88
2019-02-22T00:55:21.716Z,8.88
2019-02-22T00:57:50.218Z,8.89
2019-02-22T01:00:18.752Z,8.89
2019-02-22T01:02:47.284Z,8.88
2019-02-22T01:05:15.800Z,8.87
2019-02-22T01:07:44.404Z,8.86
2019-02-22T01:10:13.113Z,8.85
2019-02-22T01:12:41.593Z,8.87
2019-02-22T01:15:10.184Z,8.87
2019-02-22T01:17:38.681Z,8.88
2019-02-22T01:20:07.253Z,8.87
2019-02-22T01:22:35.869Z,8.88
2019-02-22T01:25:05.109Z,8.89
2019-02-22T01:27:33.632Z,8.90
2019-02-22T01:30:02.091Z,8.90
2019-02-22T01:32:30.591Z,8.91
2019-02-22T01:34:59.157Z,8.90
2019-02-22T01:37:27.691Z,8.90
2019-02-22T01:39:56.214Z,8.90
2019-02-22T01:42:24.771Z,8.89
2019-02-22T01:44:53.485Z,8.88
2019-02-22T01:47:22.417Z,8.89
2019-02-22T01:49:50.879Z,8.90
2019-02-22T01:52:19.338Z,8.90
2019-02-22T01:54:48.159Z,8.90
2019-02-22T01:57:16.791Z,8.90
2019-02-22T01:59:45.504Z,8.89
2019-02-22T02:02:14.035Z,8.88
2019-02-22T02:04:42.568Z,8.89
2019-02-22T02:07:11.099Z,8.89
2019-02-22T02:09:39.716Z,8.92
2019-02-22T02:12:08.524Z,8.90
2019-02-22T02:14:37.200Z,8.91
2019-02-22T02:17:05.813Z,8.91
2019-02-22T02:19:34.366Z,8.93
2019-02-22T02:22:02.847Z,8.92
2019-02-22T02:24:31.395Z,8.92
2019-02-22T02:27:00.017Z,8.91
2019-02-22T02:29:28.625Z,8.90
2019-02-22T02:31:57.192Z,8.92
2019-02-22T02:34:25.839Z,8.92
2019-02-22T02:36:54.310Z,8.92
2019-02-22T02:39:22.826Z,8.89
2019-02-22T02:41:51.334Z,8.90
2019-02-22T02:44:19.866Z,8.91
2019-02-22T02:46:48.454Z,8.92
2019-02-22T02:49:17.055Z,8.91
2019-02-22T02:51:45.536Z,8.92
2019-02-22T02:54:14.019Z,8.92
2019-02-22T02:56:42.504Z,8.92
2019-02-22T02:59:11.009Z,8.92
2019-02-22T03:01:39.541Z,8.91
2019-02-22T03:04:08.152Z,8.90
2019-02-22T03:06:38.341Z,8.91
2019-02-22T03:09:09.000Z,8.92
2019-02-22T03:11:37.527Z,8.92
2019-02-22T03:14:06.017Z,8.91
2019-02-22T03:16:34.764Z,8.92
2019-02-22T03:19:03.338Z,8.93
2019-02-22T03:21:31.844Z,8.92
2019-02-22T03:24:00.476Z,8.91
2019-02-22T03:26:29.087Z,8.90
2019-02-22T03:28:57.563Z,8.90
2019-02-22T03:31:26.063Z,8.90
2019-02-22T03:33:54.530Z,8.89
2019-02-22T03:36:23.013Z,8.89
2019-02-22T03:38:51.699Z,8.88
2019-02-22T03:41:31.893Z,8.90
2019-02-22T03:43:50.548Z,8.89
2019-02-22T03:46:19.489Z,8.88
2019-02-22T03:48:48.127Z,8.89
2019-02-22T03:51:16.860Z,8.88
2019-02-22T03:53:47.085Z,8.88
2019-02-22T03:56:15.824Z,8.85
2019-02-22T03:58:44.417Z,8.90
2019-02-22T04:01:12.960Z,8.89
2019-02-22T04:03:41.780Z,8.90
2019-02-22T04:06:10.267Z,8.91
2019-02-22T04:08:38.722Z,8.93
2019-02-22T04:11:07.238Z,8.92
2019-02-22T04:13:35.750Z,8.94
2019-02-22T04:16:04.367Z,8.94
2019-02-22T04:18:33.124Z,8.95
2019-02-22T04:21:01.924Z,8.97
2019-02-22T04:23:30.365Z,8.97
2019-02-22T04:25:58.916Z,8.97
2019-02-22T04:28:27.387Z,8.97
2019-02-22T04:30:55.883Z,8.96
2019-02-22T04:33:24.380Z,8.96
2019-02-22T04:35:53.022Z,8.95
2019-02-22T04:38:21.712Z,8.96
2019-02-22T04:40:50.276Z,8.94
2019-02-22T04:43:18.732Z,8.95
2019-02-22T04:45:47.237Z,8.94
2019-02-22T04:48:15.986Z,8.93
2019-02-22T04:50:44.522Z,8.94
2019-02-22T04:53:12.985Z,8.95
2019-02-22T04:55:41.666Z,8.96
2019-02-22T04:58:10.122Z,8.95
2019-02-22T05:00:38.611Z,8.96
2019-02-22T05:03:07.344Z,8.95
2019-02-22T05:05:35.803Z,8.92
2019-02-22T05:08:04.481Z,8.91
2019-02-22T05:10:32.961Z,8.91
2019-02-22T05:13:01.440Z,8.89
2019-02-22T05:15:30.277Z,8.90
2019-02-22T05:17:58.744Z,8.89
2019-02-22T05:20:27.259Z,8.89
2019-02-22T05:23:03.968Z,8.89
2019-02-22T05:25:25.955Z,8.89
2019-02-22T05:27:54.440Z,8.89
2019-02-22T05:30:22.959Z,8.89
2019-02-22T05:32:51.698Z,8.88
2019-02-22T05:35:20.159Z,8.88
2019-02-22T05:37:48.637Z,8.87
2019-02-22T05:40:17.099Z,8.87
2019-02-22T05:42:45.596Z,8.88
2019-02-22T05:45:14.085Z,8.89
2019-02-22T05:47:42.537Z,8.88
2019-02-22T05:50:11.153Z,8.89
2019-02-22T05:52:39.930Z,8.89
2019-02-22T05:55:08.562Z,8.88
2019-02-22T05:57:37.092Z,8.87
2019-02-22T06:00:07.094Z,8.85
2019-02-22T06:02:35.629Z,8.85
2019-02-22T06:05:04.698Z,8.85
2019-02-22T06:07:33.252Z,8.85
2019-02-22T06:10:01.738Z,8.85
2019-02-22T06:12:34.468Z,8.86
2019-02-22T06:15:00.669Z,8.86
2019-02-22T06:17:29.140Z,8.86
2019-02-22T06:19:57.595Z,8.87
2019-02-22T06:22:29.711Z,8.87
2019-02-22T06:24:56.312Z,8.88
2019-02-22T06:27:24.782Z,8.88
2019-02-22T06:29:53.814Z,8.89
2019-02-22T06:32:22.284Z,8.88
2019-02-22T06:34:50.747Z,8.89
2019-02-22T06:37:19.314Z,8.90
2019-02-22T06:39:48.150Z,8.90
2019-02-22T06:42:16.816Z,8.91
2019-02-22T06:44:45.373Z,8.93
2019-02-22T06:47:13.855Z,8.93
2019-02-22T06:49:44.405Z,8.93
2019-02-22T06:52:12.617Z,8.93
2019-02-22T06:54:41.966Z,8.93
2019-02-22T06:57:10.497Z,8.93
2019-02-22T06:59:38.948Z,8.92
2019-02-22T07:02:07.510Z,8.92
2019-02-22T07:04:35.999Z,8.92
2019-02-22T07:07:04.554Z,8.92
2019-02-22T07:09:33.078Z,8.92
2019-02-22T07:12:05.936Z,8.92
2019-02-22T07:14:34.683Z,8.93
2019-02-22T07:17:03.304Z,8.94
2019-02-22T07:19:31.763Z,8.95
2019-02-22T07:22:00.267Z,8.97
2019-02-22T07:24:28.807Z,8.98
2019-02-22T07:26:57.289Z,9.00
2019-02-22T07:29:25.743Z,9.01
2019-02-22T07:32:02.643Z,9.03
2019-02-22T07:34:24.425Z,9.06
2019-02-22T07:36:52.892Z,9.08
2019-02-22T07:39:27.720Z,9.12
2019-02-22T07:41:51.764Z,9.15
2019-02-22T07:44:20.222Z,9.19
2019-02-22T07:46:48.968Z,9.21
2019-02-22T07:49:25.496Z,9.26
2019-02-22T07:51:54.125Z,9.31
2019-02-22T07:54:22.588Z,9.36
2019-02-22T07:56:51.147Z,9.43
2019-02-22T07:59:19.677Z,9.52
2019-02-22T08:01:48.477Z,9.60
2019-02-22T08:04:16.941Z,9.67
2019-02-22T08:06:45.496Z,9.76
2019-02-22T08:09:13.958Z,9.83
2019-02-22T08:11:42.716Z,9.90
2019-02-22T08:14:11.169Z,9.99
2019-02-22T08:16:39.704Z,10.21
2019-02-22T08:19:08.211Z,10.39
2019-02-22T08:21:36.663Z,10.50
2019-02-22T08:24:05.303Z,10.59
2019-02-22T08:26:33.781Z,10.66
2019-02-22T08:29:02.314Z,10.75
2019-02-22T08:31:31.158Z,10.79
2019-02-22T08:33:59.630Z,10.80
2019-02-22T08:36:28.086Z,10.79
2019-02-22T08:38:56.590Z,10.82
2019-02-22T08:41:25.176Z,10.80
2019-02-22T08:43:53.660Z,10.81
2019-02-22T08:46:22.140Z,10.84
2019-02-22T08:48:50.697Z,10.86
2019-02-22T08:51:19.242Z,10.89
2019-02-22T08:53:47.815Z,10.91
2019-02-22T08:56:16.540Z,10.94
2019-02-22T08:58:45.111Z,11.00
2019-02-22T09:01:13.611Z,11.05
2019-02-22T09:03:50.625Z,11.10
2019-02-22T09:06:12.343Z,11.16
2019-02-22T09:08:41.703Z,11.25
2019-02-22T09:11:10.156Z,11.41
2019-02-22T09:13:43.550Z,11.41
2019-02-22T09:16:08.923Z,11.52
2019-02-22T09:18:37.406Z,11.63
2019-02-22T09:21:05.907Z,11.75
2019-02-22T09:23:34.371Z,11.90
2019-02-22T09:26:02.950Z,12.07
2019-02-22T09:28:31.429Z,12.19
2019-02-22T09:30:59.960Z,12.28
2019-02-22T09:33:28.453Z,12.36
2019-02-22T09:35:56.947Z,12.43
2019-02-22T09:38:25.483Z,12.52
2019-02-22T09:40:53.977Z,12.62
2019-02-22T09:43:22.623Z,12.70
2019-02-22T09:45:51.107Z,12.79
2019-02-22T09:48:19.620Z,12.90
2019-02-22T09:50:48.075Z,13.07
2019-02-22T09:53:16.572Z,13.25
2019-02-22T09:55:45.025Z,13.61
2019-02-22T09:58:13.613Z,14.32
2019-02-22T10:00:42.207Z,14.74
2019-02-22T10:03:10.739Z,15.30
2019-02-22T10:05:39.197Z,15.82
2019-02-22T10:08:07.713Z,15.99
2019-02-22T10:10:36.182Z,16.03
2019-02-22T10:13:04.778Z,15.94
2019-02-22T10:15:33.546Z,15.83
2019-02-22T10:18:02.010Z,15.74
2019-02-22T10:20:30.770Z,15.75
2019-02-22T10:22:59.295Z,15.76
2019-02-22T10:25:27.822Z,15.82
2019-02-22T10:27:56.341Z,15.97
2019-02-22T10:30:24.939Z,16.14
2019-02-22T10:32:53.612Z,16.26
2019-02-22T10:35:22.319Z,16.20
2019-02-22T10:37:50.777Z,16.17
2019-02-22T10:40:19.273Z,16.27
2019-02-22T10:42:48.094Z,16.37
2019-02-22T10:45:16.606Z,16.59
2019-02-22T10:47:45.072Z,16.92
2019-02-22T10:50:13.528Z,17.44
2019-02-22T10:52:42.111Z,17.73
2019-02-22T10:55:12.506Z,17.66
2019-02-22T10:57:41.058Z,17.78
2019-02-22T11:00:12.922Z,17.90
2019-02-22T11:02:41.698Z,18.12
2019-02-22T11:05:10.405Z,18.27
2019-02-22T11:07:39.043Z,18.53
2019-02-22T11:10:10.409Z,18.85
2019-02-22T11:12:38.931Z,19.06
2019-02-22T11:15:09.970Z,19.26
2019-02-22T11:17:38.419Z,19.39
2019-02-22T11:20:11.706Z,19.55
2019-02-22T11:22:40.242Z,19.67
2019-02-22T11:25:13.639Z,19.78
2019-02-22T11:27:42.209Z,20.05
2019-02-22T11:30:14.908Z,20.08
2019-02-22T11:32:43.412Z,20.03
2019-02-22T11:35:12.028Z,20.03
2019-02-22T11:37:40.830Z,20.01
2019-02-22T11:40:10.770Z,20.13
2019-02-22T11:42:39.206Z,20.01
2019-02-22T11:45:09.139Z,19.43
2019-02-22T11:47:37.680Z,18.85
2019-02-22T11:50:10.993Z,18.33
2019-02-22T11:52:39.689Z,17.86
2019-02-22T11:55:09.717Z,17.21
2019-02-22T11:57:38.433Z,16.70
2019-02-22T12:00:17.468Z,16.27
2019-02-22T12:02:47.170Z,15.97
2019-02-22T12:05:15.732Z,15.72
2019-02-22T12:07:44.356Z,15.53
2019-02-22T12:10:13.725Z,15.32
2019-02-22T12:12:43.046Z,15.15
2019-02-22T12:15:13.054Z,14.97
2019-02-22T12:17:41.852Z,14.81
2019-02-22T12:20:11.151Z,14.67
2019-02-22T12:22:39.713Z,14.88
2019-02-22T12:25:10.905Z,15.38
2019-02-22T12:27:39.507Z,15.58
2019-02-22T12:30:15.662Z,15.47
2019-02-22T12:32:44.558Z,15.28
2019-02-22T12:35:13.273Z,15.10
2019-02-22T12:37:41.916Z,15.17
2019-02-22T12:40:11.290Z,15.36
2019-02-22T12:42:39.842Z,15.51
2019-02-22T12:45:10.436Z,15.53
2019-02-22T12:47:39.001Z,15.46
2019-02-22T12:50:09.943Z,15.35
2019-02-22T12:52:38.523Z,15.19
2019-02-22T12:55:11.516Z,15.00
2019-02-22T12:57:40.307Z,14.83
2019-02-22T13:00:14.766Z,14.70
2019-02-22T13:02:42.517Z,14.51
2019-02-22T13:05:13.962Z,14.36
2019-02-22T13:07:42.922Z,14.90
2019-02-22T13:10:11.940Z,15.31
2019-02-22T13:12:40.651Z,15.67
2019-02-22T13:15:14.386Z,15.81
2019-02-22T13:17:41.861Z,15.73
2019-02-22T13:20:10.784Z,15.44
2019-02-22T13:22:39.414Z,15.26
2019-02-22T13:25:11.720Z,15.11
2019-02-22T13:27:40.285Z,14.89
2019-02-22T13:30:14.340Z,14.82
2019-02-22T13:32:42.899Z,14.65
2019-02-22T13:35:11.641Z,14.52
2019-02-22T13:37:40.291Z,14.48
2019-02-22T13:40:14.578Z,14.40
2019-02-22T13:42:43.230Z,14.39
2019-02-22T13:45:12.790Z,14.32
2019-02-22T13:47:41.388Z,14.30
2019-02-22T13:50:17.101Z,14.26
2019-02-22T13:52:45.637Z,14.31
2019-02-22T13:55:14.973Z,14.37
2019-02-22T13:57:43.698Z,14.37
2019-02-22T14:00:18.012Z,14.35
2019-02-22T14:02:46.533Z,14.29
2019-02-22T14:05:15.246Z,14.18
2019-02-22T14:07:54.323Z,14.10
2019-02-22T14:10:23.253Z,13.94
2019-02-22T14:12:51.723Z,13.72
2019-02-22T14:15:20.262Z,13.58
2019-02-22T14:17:49.023Z,13.50
2019-02-22T14:20:17.736Z,13.47
2019-02-22T14:22:47.345Z,13.43
2019-02-22T14:25:15.858Z,13.45
2019-02-22T14:27:44.487Z,13.46
2019-02-22T14:30:17.486Z,13.43
2019-02-22T14:32:46.397Z,13.46
2019-02-22T14:35:15.008Z,13.41
2019-02-22T14:37:43.574Z,13.39
2019-02-22T14:40:13.194Z,13.35
2019-02-22T14:42:41.759Z,13.34
2019-02-22T14:45:12.608Z,13.31
2019-02-22T14:47:41.179Z,13.29
2019-02-22T14:50:15.092Z,13.25
2019-02-22T14:52:43.568Z,13.19
2019-02-22T14:55:12.248Z,13.09
2019-02-22T14:57:40.800Z,12.99
2019-02-22T15:00:14.767Z,12.92
2019-02-22T15:02:43.248Z,12.81
2019-02-22T15:05:13.549Z,12.74
2019-02-22T15:07:42.081Z,12.70
2019-02-22T15:10:11.215Z,12.68
2019-02-22T15:12:39.766Z,12.63
2019-02-22T15:15:11.195Z,12.67
2019-02-22T15:17:41.396Z,12.72
2019-02-22T15:20:09.996Z,12.76
2019-02-22T15:22:38.750Z,12.74
2019-02-22T15:25:10.607Z,12.73
2019-02-22T15:27:39.288Z,12.70
2019-02-22T15:30:10.910Z,12.72
2019-02-22T15:32:39.593Z,12.71
2019-02-22T15:35:13.400Z,12.68
2019-02-22T15:37:43.332Z,12.68
2019-02-22T15:40:13.782Z,12.69
2019-02-22T15:42:43.088Z,12.66
2019-02-22T15:45:14.326Z,12.59
2019-02-22T15:47:42.802Z,12.54
2019-02-22T15:50:13.640Z,12.48
2019-02-22T15:52:43.553Z,12.46
2019-02-22T15:55:14.348Z,12.44
2019-02-22T15:57:42.359Z,12.42
2019-02-22T16:00:26.505Z,12.38
2019-02-22T16:02:54.986Z,12.32
2019-02-22T16:05:31.145Z,12.27
2019-02-22T16:07:59.753Z,12.20
2019-02-22T16:10:28.675Z,12.17
2019-02-22T16:12:57.278Z,12.06
2019-02-22T16:15:25.849Z,12.06
2019-02-22T16:17:54.302Z,12.01
2019-02-22T16:20:23.263Z,11.95
2019-02-22T16:22:51.842Z,11.90
2019-02-22T16:25:20.451Z,11.82
2019-02-22T16:27:48.941Z,11.78
2019-02-22T16:30:19.909Z,11.72
2019-02-22T16:32:48.609Z,11.62
2019-02-22T16:35:17.150Z,11.58
2019-02-22T16:37:45.696Z,11.56
2019-02-22T16:40:14.420Z,11.52
2019-02-22T16:42:43.204Z,11.47
2019-02-22T16:45:12.923Z,11.42
2019-02-22T16:47:41.470Z,11.38
2019-02-22T16:50:14.273Z,11.33
2019-02-22T16:52:45.167Z,11.30
2019-02-22T16:55:16.942Z,11.28
2019-02-22T16:57:45.667Z,11.25
2019-02-22T17:00:16.569Z,11.21
2019-02-22T17:02:45.065Z,11.16
2019-02-22T17:05:15.691Z,11.13
2019-02-22T17:07:44.297Z,11.10
2019-02-22T17:10:13.096Z,11.08
2019-02-22T17:12:41.677Z,11.04
2019-02-22T17:15:12.264Z,11.02
2019-02-22T17:17:40.907Z,10.98
2019-02-22T17:20:11.433Z,10.95
2019-02-22T17:22:39.975Z,10.93
2019-02-22T17:25:11.281Z,10.91
2019-02-22T17:27:39.849Z,10.90
2019-02-22T17:30:16.428Z,10.87
2019-02-22T17:32:44.988Z,10.85
2019-02-22T17:35:13.587Z,10.83
2019-02-22T17:37:42.241Z,10.83
2019-02-22T17:40:16.057Z,10.82
2019-02-22T17:42:44.540Z,10.81
2019-02-22T17:45:13.183Z,10.78
2019-02-22T17:47:41.848Z,10.77
2019-02-22T17:50:10.789Z,10.77
2019-02-22T17:52:39.347Z,10.73
2019-02-22T17:55:09.569Z,10.72
2019-02-22T17:57:38.585Z,10.70
2019-02-22T18:00:11.970Z,10.66
2019-02-22T18:02:40.472Z,10.62
2019-02-22T18:05:09.080Z,10.60
2019-02-22T18:07:37.938Z,10.55
2019-02-22T18:10:11.032Z,10.53
2019-02-22T18:12:39.530Z,10.49
2019-02-22T18:15:10.633Z,10.47
2019-02-22T18:17:39.781Z,10.44
2019-02-22T18:20:09.159Z,10.40
2019-02-22T18:22:37.704Z,10.38
2019-02-22T18:25:08.641Z,10.34
2019-02-22T18:27:37.251Z,10.31
2019-02-22T18:30:11.623Z,10.28
2019-02-22T18:32:40.162Z,10.22
2019-02-22T18:35:09.059Z,10.16
2019-02-22T18:37:37.702Z,10.11
2019-02-22T18:40:09.335Z,10.02
2019-02-22T18:42:37.963Z,9.95
2019-02-22T18:45:08.200Z,9.75
2019-02-22T18:47:36.752Z,9.75
2019-02-22T18:50:08.173Z,9.62
2019-02-22T18:52:36.708Z,9.51
2019-02-22T18:55:09.661Z,9.40
2019-02-22T18:57:38.381Z,9.29
2019-02-22T19:00:16.653Z,9.21
2019-02-22T19:02:45.141Z,9.14
2019-02-22T19:05:13.737Z,9.02
2019-02-22T19:07:42.514Z,8.93
2019-02-22T19:10:13.553Z,8.87
2019-02-22T19:12:42.215Z,8.80
2019-02-22T19:15:12.602Z,8.74
2019-02-22T19:17:41.544Z,8.69
2019-02-22T19:20:15.734Z,8.64
2019-02-22T19:22:43.769Z,8.56
2019-02-22T19:25:12.531Z,8.46
2019-02-22T19:27:41.146Z,8.42
2019-02-22T19:30:23.877Z,8.37
2019-02-22T19:32:52.487Z,8.34
2019-02-22T19:35:21.449Z,8.27
2019-02-22T19:37:50.015Z,8.24
2019-02-22T19:40:21.443Z,8.22
2019-02-22T19:42:50.490Z,8.20
2019-02-22T19:45:19.607Z,8.16
2019-02-22T19:47:48.126Z,8.09
2019-02-22T19:50:17.356Z,8.03
2019-02-22T19:52:45.949Z,8.03
2019-02-22T19:55:17.032Z,8.00
2019-02-22T19:57:45.650Z,7.97
2019-02-22T20:00:16.323Z,7.93
2019-02-22T20:02:44.882Z,7.88
2019-02-22T20:05:14.598Z,7.81
2019-02-22T20:07:43.160Z,7.77
2019-02-22T20:10:17.818Z,7.72
2019-02-22T20:12:44.633Z,7.69
2019-02-22T20:15:17.511Z,7.64
2019-02-22T20:17:53.815Z,7.59
2019-02-22T20:20:18.029Z,7.54
2019-02-22T20:22:46.581Z,7.51
2019-02-22T20:25:15.103Z,7.46
2019-02-22T20:27:43.747Z,7.43
2019-02-22T20:30:14.540Z,7.37
2019-02-22T20:32:44.161Z,7.31
2019-02-22T20:35:14.973Z,7.27
2019-02-22T20:37:51.878Z,7.25
2019-02-22T20:40:13.986Z,7.21
2019-02-22T20:42:43.829Z,7.20
2019-02-22T20:45:13.285Z,7.17
2019-02-22T20:47:41.889Z,7.13
2019-02-22T20:50:12.223Z,7.11
2019-02-22T20:52:40.693Z,7.08
2019-02-22T20:55:12.524Z,7.05
2019-02-22T20:57:41.037Z,7.01
2019-02-22T21:00:18.137Z,6.98
2019-02-22T21:02:46.770Z,6.95
2019-02-22T21:05:15.386Z,6.94
2019-02-22T21:07:43.971Z,6.94
2019-02-22T21:10:19.730Z,6.94
2019-02-22T21:12:48.511Z,6.94
2019-02-22T21:15:17.205Z,6.92
2019-02-22T21:17:45.757Z,6.90
2019-02-22T21:20:19.083Z,6.88
2019-02-22T21:22:47.633Z,6.87
2019-02-22T21:25:16.250Z,6.86
2019-02-22T21:27:44.732Z,6.84
2019-02-22T21:30:15.401Z,6.81
2019-02-22T21:32:44.150Z,6.78
2019-02-22T21:35:12.941Z,6.76
2019-02-22T21:37:42.845Z,6.72
2019-02-22T21:40:12.730Z,6.70
2019-02-22T21:42:41.239Z,6.66
2019-02-22T21:45:12.796Z,6.63
2019-02-22T21:47:41.342Z,6.60
2019-02-22T21:50:12.382Z,6.57
2019-02-22T21:52:40.979Z,6.56
2019-02-22T21:55:16.148Z,6.53
2019-02-22T21:57:44.651Z,6.52
2019-02-22T22:00:18.632Z,6.47
2019-02-22T22:02:47.286Z,6.44
2019-02-22T22:05:15.826Z,6.38
2019-02-22T22:07:44.549Z,6.34
2019-02-22T22:10:13.072Z,6.31
2019-02-22T22:12:41.768Z,6.26
2019-02-22T22:15:11.994Z,6.23
2019-02-22T22:17:40.655Z,6.18
2019-02-22T22:20:10.255Z,6.15
2019-02-22T22:22:39.256Z,6.11
2019-02-22T22:25:10.814Z,6.08
2019-02-22T22:27:39.269Z,6.00
2019-02-22T22:30:12.662Z,6.00
2019-02-22T22:32:41.388Z,5.97
2019-02-22T22:35:11.708Z,5.93
2019-02-22T22:37:40.251Z,5.91
2019-02-22T22:40:10.600Z,5.89
2019-02-22T22:42:39.195Z,5.85
2019-02-22T22:45:12.756Z,5.82
2019-02-22T22:47:41.241Z,5.80
2019-02-22T22:50:17.155Z,5.76
2019-02-22T22:52:45.605Z,5.72
2019-02-22T22:55:14.166Z,5.68
2019-02-22T22:57:42.697Z,5.66
2019-02-22T23:00:40.182Z,5.62
2019-02-22T23:03:08.813Z,5.59
2019-02-22T23:05:37.341Z,5.55
2019-02-22T23:08:06.332Z,5.54
2019-02-22T23:10:34.944Z,5.52
2019-02-22T23:13:03.461Z,5.49
2019-02-22T23:15:32.259Z,5.48
2019-02-22T23:18:00.794Z,5.45
2019-02-22T23:20:29.380Z,5.42
2019-02-22T23:22:57.962Z,5.37
2019-02-22T23:25:26.415Z,5.34
2019-02-22T23:27:55.049Z,5.31
2019-02-22T23:30:23.614Z,5.29
2019-02-22T23:32:52.163Z,5.26
2019-02-22T23:35:21.286Z,5.23
2019-02-22T23:37:49.806Z,5.19
2019-02-22T23:40:18.292Z,5.16
2019-02-22T23:42:46.756Z,5.14
2019-02-22T23:45:15.312Z,5.11
2019-02-22T23:47:43.853Z,5.09
2019-02-22T23:50:12.331Z,5.06
2019-02-22T23:52:40.812Z,5.04
2019-02-22T23:55:09.294Z,5.03
2019-02-22T23:57:37.752Z,5.00
